Time;durP1;ratioP1;P1;durP2;ratioP2;P2;SDS_P1;SDS_P2;PMS_P1;PMS_P2;Temp;Humidity;BMP_temperature;BMP_pressure;BME280_temperature;BME280_humidity;BME280_pressure;Samples;Min_cycle;Max_cycle;Signal;HPM_P1;HPM_P2
2022/01/04 00:02:27;;;;;;;;;3.75;2.00;;;;;13.42;75.91;99571.31;5075810;28;45680;-80
2022/01/04 00:04:53;;;;;;;;;0.25;0.00;;;;;13.45;76.21;99564.91;5076170;28;45578;-82
2022/01/04 00:07:18;;;;;;;;;2.25;1.00;;;;;13.42;76.07;99558.16;5075505;28;46351;-78
2022/01/04 00:09:45;;;;;;;;;1.00;1.00;;;;;13.37;75.91;99544.66;5075130;28;45677;-81
2022/01/04 00:14:56;;;;;;;;;1.25;1.00;;;;;13.41;76.23;99542.53;5075528;28;45733;-79
2022/01/04 00:17:21;;;;;;;;;0.50;0.50;;;;;13.41;76.12;99538.09;5075439;28;45550;-76
2022/01/04 00:19:48;;;;;;;;;0.00;0.00;;;;;13.39;76.49;99528.69;5075530;28;45670;-78
2022/01/04 00:22:13;;;;;;;;;1.00;0.25;;;;;13.19;76.21;99488.59;5075670;28;45632;-78
2022/01/04 00:24:39;;;;;;;;;0.50;0.25;;;;;13.40;76.02;99512.75;5075582;28;45662;-79
2022/01/04 00:27:04;;;;;;;;;1.00;0.25;;;;;13.37;76.15;99505.19;5075368;28;45660;-78
2022/01/04 00:32:52;;;;;;;;;0.00;0.00;;;;;13.38;76.26;99492.84;5074961;28;45589;-79
2022/01/04 00:35:17;;;;;;;;;0.00;0.00;;;;;13.35;76.40;99480.81;5074680;27;45777;-78
2022/01/04 00:37:42;;;;;;;;;0.00;0.00;;;;;13.39;76.52;99478.69;5074618;28;45410;-78
2022/01/04 00:40:08;;;;;;;;;0.50;0.00;;;;;13.25;76.52;99450.34;5074547;28;45637;-79
2022/01/04 00:42:34;;;;;;;;;0.00;0.00;;;;;13.37;76.23;99467.53;5074805;28;45594;-78
2022/01/04 00:44:59;;;;;;;;;0.00;0.00;;;;;13.35;76.57;99457.16;5075349;28;45776;-79
2022/01/04 00:47:38;;;;;;;;;0.00;0.00;;;;;13.36;76.60;99455.34;5075057;28;45604;-80
2022/01/04 00:50:04;;;;;;;;;0.00;0.00;;;;;13.34;76.30;99449.41;5075308;28;45458;-80
2022/01/04 00:52:30;;;;;;;;;0.00;0.00;;;;;13.33;76.13;99443.31;5075873;28;45760;-80
2022/01/04 00:54:55;;;;;;;;;0.00;0.00;;;;;13.28;76.72;99439.53;5075218;28;45441;-79
2022/01/04 00:57:20;;;;;;;;;0.50;0.00;;;;;13.30;76.61;99429.66;5074936;28;45543;-80
2022/01/04 01:03:08;;;;;;;;;0.00;0.00;;;;;13.33;76.62;99430.16;5084064;28;45519;-80
2022/01/04 01:05:33;;;;;;;;;0.00;0.00;;;;;13.31;76.67;99410.28;5079664;28;45562;-78
2022/01/04 01:07:59;;;;;;;;;0.00;0.00;;;;;13.29;76.86;99407.78;5081141;28;46466;-79
2022/01/04 01:12:55;;;;;;;;;0.00;0.00;;;;;13.30;76.71;99392.81;5094195;28;45806;-79
2022/01/04 01:15:21;;;;;;;;;0.00;0.00;;;;;13.27;76.78;99387.91;5095312;28;45576;-79
2022/01/04 01:17:47;;;;;;;;;0.00;0.00;;;;;13.28;76.82;99379.03;5091971;28;45633;-79
2022/01/04 01:20:13;;;;;;;;;0.00;0.00;;;;;13.29;76.63;99394.63;5086649;28;46338;-78
2022/01/04 01:22:40;;;;;;;;;0.00;0.00;;;;;13.31;76.70;99378.69;5076914;28;45673;-79
2022/01/04 01:25:07;;;;;;;;;0.00;0.00;;;;;13.15;76.85;99350.50;5077804;28;45628;-80
2022/01/04 01:27:33;;;;;;;;;0.00;0.00;;;;;13.31;76.87;99378.69;5077346;28;45468;-79
2022/01/04 01:33:20;;;;;;;;;0.00;0.00;;;;;13.28;77.09;99369.31;5074007;28;45552;-79
2022/01/04 01:35:46;;;;;;;;;0.00;0.00;;;;;13.28;76.60;99371.13;5074343;27;45651;-79
2022/01/04 01:38:14;;;;;;;;;0.00;0.00;;;;;13.26;77.08;99363.41;5073862;28;46541;-78
2022/01/04 01:40:41;;;;;;;;;1.00;1.00;;;;;13.14;76.97;99337.50;5073935;28;46139;-78
2022/01/04 01:43:06;;;;;;;;;0.25;0.25;;;;;13.24;76.99;99354.81;5074086;28;45622;-78
2022/01/04 01:45:32;;;;;;;;;1.00;1.00;;;;;13.23;76.97;99342.66;5075354;28;45697;-77
2022/01/04 01:47:57;;;;;;;;;1.00;1.00;;;;;13.23;76.83;99345.28;5078799;28;46322;-79
2022/01/04 01:50:23;;;;;;;;;3.00;1.00;;;;;13.25;76.88;99338.06;5080240;28;45862;-79
2022/01/04 01:52:50;;;;;;;;;1.00;1.00;;;;;13.23;76.80;99324.25;5079593;28;45976;-79
2022/01/04 01:55:18;;;;;;;;;0.50;0.00;;;;;13.24;77.03;99314.53;5078281;28;45699;-79
2022/01/04 01:57:44;;;;;;;;;1.00;1.00;;;;;13.23;77.09;99313.72;5078210;28;46136;-78
2022/01/04 02:03:31;;;;;;;;;2.25;1.00;;;;;13.17;77.00;99311.72;5077212;28;45830;-79
2022/01/04 02:05:57;;;;;;;;;0.25;0.25;;;;;13.18;76.72;99315.16;5077678;28;45682;-78
2022/01/04 02:08:22;;;;;;;;;1.00;1.00;;;;;13.17;76.52;99311.72;5076993;28;45950;-80
2022/01/04 02:10:50;;;;;;;;;0.00;0.00;;;;;13.16;76.62;99312.72;5077339;28;46187;-80
2022/01/04 02:13:16;;;;;;;;;2.25;2.25;;;;;13.14;76.58;99291.00;5077310;28;45704;-78
2022/01/04 02:15:41;;;;;;;;;3.00;2.50;;;;;13.13;76.77;99284.09;5078213;28;45645;-79
2022/01/04 02:18:06;;;;;;;;;6.00;4.75;;;;;13.16;76.94;99288.22;5077900;28;45572;-77
2022/01/04 02:20:32;;;;;;;;;8.75;6.25;;;;;13.11;76.89;99277.31;5077458;28;45779;-79
2022/01/04 02:22:57;;;;;;;;;6.50;6.25;;;;;13.02;76.79;99264.13;5077082;28;45549;-77
2022/01/04 02:25:23;;;;;;;;;8.50;6.00;;;;;13.06;76.57;99290.13;5077067;28;45594;-78
2022/01/04 02:27:49;;;;;;;;;8.50;8.25;;;;;12.97;77.16;99257.69;5077105;28;45762;-78
2022/01/04 02:33:35;;;;;;;;;8.50;6.75;;;;;12.93;77.14;99251.09;5077080;28;45595;-80
2022/01/04 02:36:01;;;;;;;;;9.25;8.00;;;;;12.95;76.82;99254.41;5076750;27;45749;-78
2022/01/04 02:38:26;;;;;;;;;7.75;6.00;;;;;12.84;76.96;99236.28;5076805;28;46369;-79
2022/01/04 02:40:51;;;;;;;;;8.75;7.00;;;;;12.83;76.88;99229.38;5076304;28;46385;-77
2022/01/04 02:43:17;;;;;;;;;6.00;6.00;;;;;12.77;76.71;99237.88;5076889;28;45640;-78
2022/01/04 02:45:42;;;;;;;;;6.00;5.25;;;;;12.76;76.73;99236.22;5077031;28;45669;-78
2022/01/04 02:48:08;;;;;;;;;4.00;4.00;;;;;12.72;76.91;99224.41;5077027;28;45594;-77
2022/01/04 02:50:33;;;;;;;;;3.25;3.00;;;;;12.60;76.66;99214.16;5076378;28;46258;-78
2022/01/04 02:52:59;;;;;;;;;3.50;3.50;;;;;12.59;76.66;99212.50;5076942;28;45836;-78
2022/01/04 02:55:24;;;;;;;;;2.25;2.25;;;;;12.51;76.88;99217.72;5076991;28;45732;-78
2022/01/04 02:57:49;;;;;;;;;3.00;3.00;;;;;12.38;76.58;99198.09;5076599;28;45553;-79
2022/01/04 03:03:37;;;;;;;;;2.00;1.00;;;;;12.28;76.79;99194.75;5076231;28;45578;-78
2022/01/04 03:06:02;;;;;;;;;2.00;1.25;;;;;12.20;76.76;99192.88;5076807;28;45610;-78
2022/01/04 03:08:27;;;;;;;;;2.00;2.00;;;;;12.09;76.68;99178.22;5076329;28;45595;-79
2022/01/04 03:10:53;;;;;;;;;1.75;1.75;;;;;12.07;76.74;99177.56;5076204;28;46357;-78
2022/01/04 03:13:18;;;;;;;;;1.00;1.00;;;;;12.02;76.75;99185.06;5076596;28;45673;-78
2022/01/04 03:19:10;;;;;;;;;0.00;0.00;;;;;11.83;77.00;99172.13;5075634;28;45716;-77
2022/01/04 03:21:40;;;;;;;;;1.00;1.00;;;;;11.80;76.99;99155.88;5076348;28;45984;-79
2022/01/04 03:24:07;;;;;;;;;0.50;0.00;;;;;11.73;77.19;99153.84;5076184;28;45720;-78
2022/01/04 03:26:34;;;;;;;;;0.00;0.00;;;;;11.70;77.06;99158.53;5076532;28;45594;-79
2022/01/04 03:29:00;;;;;;;;;1.00;1.00;;;;;11.68;76.98;99150.00;5075797;28;46657;-78
2022/01/04 03:31:27;;;;;;;;;1.00;1.00;;;;;11.63;76.98;99147.84;5075874;28;46110;-78
2022/01/04 03:33:52;;;;;;;;;0.00;0.00;;;;;11.60;76.99;99142.06;5075905;28;45653;-79
2022/01/04 03:36:21;;;;;;;;;1.00;0.00;;;;;11.51;77.07;99135.91;5076087;27;45745;-79
2022/01/04 03:38:48;;;;;;;;;0.25;0.00;;;;;11.50;77.15;99142.13;5075745;28;46349;-76
2022/01/04 03:41:15;;;;;;;;;1.00;0.50;;;;;11.41;77.20;99132.56;5074999;28;46488;-78
2022/01/04 03:43:40;;;;;;;;;1.25;1.00;;;;;11.39;77.08;99128.44;5075843;28;45582;-79
2022/01/04 03:46:07;;;;;;;;;2.00;2.00;;;;;11.36;77.19;99134.81;5075889;28;45788;-78
2022/01/04 03:48:34;;;;;;;;;2.75;2.75;;;;;11.29;77.20;99139.81;5075301;28;47246;-81
2022/01/04 03:51:00;;;;;;;;;4.00;3.00;;;;;11.24;77.22;99139.44;5075663;28;46127;-80
2022/01/04 03:53:25;;;;;;;;;2.00;2.00;;;;;11.20;77.26;99130.25;5075682;28;45701;-79
2022/01/04 03:55:51;;;;;;;;;1.50;1.00;;;;;11.17;77.40;99129.72;5075919;28;45557;-80
2022/01/04 03:58:16;;;;;;;;;0.00;0.00;;;;;11.12;77.38;99137.22;5075383;28;46802;-79
2022/01/04 04:04:03;;;;;;;;;0.00;0.00;;;;;11.02;77.65;99139.88;5075256;28;45763;-80
2022/01/04 04:06:29;;;;;;;;;0.00;0.00;;;;;10.99;77.64;99139.34;5075751;28;45805;-79
2022/01/04 04:08:56;;;;;;;;;0.00;0.00;;;;;10.95;77.48;99144.06;5074574;28;45751;-80
2022/01/04 04:11:23;;;;;;;;;0.00;0.00;;;;;10.94;77.59;99140.63;5075615;28;46116;-78
2022/01/04 04:13:48;;;;;;;;;0.00;0.00;;;;;10.88;77.67;99130.72;5075177;28;45593;-80
2022/01/04 04:16:14;;;;;;;;;0.00;0.00;;;;;10.85;77.65;99141.50;5075939;28;45527;-78
2022/01/04 04:18:39;;;;;;;;;0.00;0.00;;;;;10.83;77.66;99140.81;5074990;28;45820;-79
2022/01/04 04:21:05;;;;;;;;;0.00;0.00;;;;;10.82;77.66;99152.28;5075438;28;46399;-80
2022/01/04 04:23:30;;;;;;;;;0.00;0.00;;;;;10.77;77.80;99145.81;5075444;28;45436;-79
2022/01/04 04:25:55;;;;;;;;;0.00;0.00;;;;;10.78;77.83;99137.81;5075656;28;45765;-79
2022/01/04 04:28:21;;;;;;;;;0.00;0.00;;;;;10.69;77.69;99130.81;5075102;28;45732;-79
2022/01/04 04:34:07;;;;;;;;;0.00;0.00;;;;;10.63;77.81;99146.31;5074847;28;45659;-79
2022/01/04 04:36:33;;;;;;;;;0.00;0.00;;;;;10.64;78.04;99156.63;5074852;27;45492;-77
2022/01/04 04:39:00;;;;;;;;;0.00;0.00;;;;;10.60;77.78;99155.28;5074623;28;45669;-78
2022/01/04 04:41:26;;;;;;;;;0.00;0.00;;;;;10.53;78.14;99136.69;5074958;28;45824;-79
2022/01/04 04:43:54;;;;;;;;;0.00;0.00;;;;;10.46;78.00;99138.25;5075718;28;45555;-78
2022/01/04 04:49:41;;;;;;;;;0.00;0.00;;;;;10.36;78.09;99144.50;5074200;28;46039;-78
2022/01/04 04:52:06;;;;;;;;;0.00;0.00;;;;;10.48;78.22;99146.78;5073302;28;46139;-77
2022/01/04 04:54:32;;;;;;;;;0.25;0.25;;;;;10.46;78.14;99147.91;5074835;28;45671;-77
2022/01/04 04:56:57;;;;;;;;;0.00;0.00;;;;;10.43;78.31;99167.34;5074900;28;45665;-75
2022/01/04 04:59:22;;;;;;;;;0.00;0.00;;;;;10.41;78.24;99165.84;5074191;28;46841;-76
2022/01/04 05:01:48;;;;;;;;;0.00;0.00;;;;;10.46;78.39;99177.53;5074638;28;46075;-78
2022/01/04 05:04:14;;;;;;;;;0.00;0.00;;;;;10.45;78.43;99169.81;5074566;28;45632;-78
2022/01/04 05:06:39;;;;;;;;;0.00;0.00;;;;;10.34;78.44;99156.91;5074753;28;45973;-77
2022/01/04 05:09:05;;;;;;;;;0.00;0.00;;;;;10.41;78.54;99166.66;5074341;28;46643;-76
2022/01/04 05:11:30;;;;;;;;;0.00;0.00;;;;;10.35;78.48;99169.03;5074480;28;45669;-80
2022/01/04 05:13:56;;;;;;;;;0.00;0.00;;;;;10.38;78.53;99173.97;5074886;28;45670;-80
2022/01/04 05:19:43;;;;;;;;;0.00;0.00;;;;;10.35;78.49;99179.50;5073220;28;45445;-76
2022/01/04 05:22:08;;;;;;;;;0.00;0.00;;;;;10.31;78.42;99199.88;5073498;28;46167;-80
2022/01/04 05:24:34;;;;;;;;;0.00;0.00;;;;;10.28;78.58;99192.31;5074451;28;46023;-79
2022/01/04 05:27:00;;;;;;;;;0.00;0.00;;;;;10.23;78.75;99191.09;5074318;28;45534;-79
2022/01/04 05:29:26;;;;;;;;;0.00;0.00;;;;;10.17;78.77;99202.13;5074497;28;46180;-79
2022/01/04 05:31:51;;;;;;;;;0.00;0.00;;;;;10.13;78.77;99190.25;5073998;28;45538;-80
2022/01/04 05:34:16;;;;;;;;;0.00;0.00;;;;;10.05;78.84;99190.97;5074359;28;45692;-79
2022/01/04 05:36:42;;;;;;;;;0.00;0.00;;;;;10.05;78.81;99189.16;5074199;27;45605;-78
2022/01/04 05:39:07;;;;;;;;;0.00;0.00;;;;;10.02;78.73;99194.69;5073927;28;46624;-79
2022/01/04 05:41:33;;;;;;;;;0.00;0.00;;;;;10.00;78.72;99177.47;5074327;28;45965;-80
2022/01/04 05:43:59;;;;;;;;;0.00;0.00;;;;;10.01;78.84;99187.81;5073774;28;45537;-78
2022/01/04 05:49:46;;;;;;;;;0.00;0.00;;;;;10.00;78.85;99183.53;5073875;28;46190;-80
2022/01/04 05:52:11;;;;;;;;;0.00;0.00;;;;;9.96;78.83;99179.56;5074375;28;45762;-79
2022/01/04 05:54:37;;;;;;;;;0.00;0.00;;;;;9.96;78.68;99187.41;5074196;28;45571;-78
2022/01/04 05:57:02;;;;;;;;;0.00;0.00;;;;;9.98;78.68;99209.03;5074377;28;45619;-80
2022/01/04 05:59:27;;;;;;;;;0.00;0.00;;;;;9.88;78.74;99189.88;5074142;28;45697;-77
2022/01/04 06:05:15;;;;;;;;;0.00;0.00;;;;;9.89;78.93;99170.59;5073913;28;45755;-78
2022/01/04 06:07:40;;;;;;;;;0.00;0.00;;;;;9.92;78.64;99167.72;5074010;28;45512;-78
2022/01/04 06:10:08;;;;;;;;;0.00;0.00;;;;;9.98;78.52;99193.34;5073989;28;45630;-78
2022/01/04 06:15:20;;;;;;;;;0.00;0.00;;;;;10.00;78.42;99178.31;5031208;28;45637;-77
2022/01/04 06:17:50;;;;;;;;;0.00;0.00;;;;;10.01;78.50;99174.72;5031223;28;45449;-81
2022/01/04 06:20:17;;;;;;;;;0.00;0.00;;;;;9.95;78.28;99180.50;5031173;28;46518;-80
2022/01/04 06:22:43;;;;;;;;;0.00;0.00;;;;;9.93;78.37;99176.41;5031614;28;46066;-81
2022/01/04 06:25:24;;;;;;;;;0.00;0.00;;;;;10.02;78.34;99191.25;5015349;28;45681;-78
2022/01/04 06:27:53;;;;;;;;;0.00;0.00;;;;;9.95;78.22;99198.84;5032148;28;45724;-77
2022/01/04 06:30:22;;;;;;;;;0.00;0.00;;;;;10.02;78.06;99207.78;5032084;28;45639;-76
2022/01/04 06:32:47;;;;;;;;;0.00;0.00;;;;;9.97;78.26;99212.59;5033080;28;46226;-76
2022/01/04 06:35:14;;;;;;;;;0.00;0.00;;;;;10.03;78.32;99204.19;5036642;28;46107;-78
2022/01/04 06:37:41;;;;;;;;;0.00;0.00;;;;;10.04;78.14;99211.06;5054565;28;45706;-77
2022/01/04 06:40:08;;;;;;;;;0.00;0.00;;;;;10.05;78.04;99211.88;5054329;28;45724;-78
2022/01/04 06:42:34;;;;;;;;;0.00;0.00;;;;;10.07;78.28;99215.19;5054162;28;46427;-77
2022/01/04 06:49:15;;;;;;;;;2.00;0.00;;;;;10.11;78.19;99233.09;5054202;28;45653;-78
2022/01/04 06:51:42;;;;;;;;;0.00;0.00;;;;;10.07;77.87;99221.25;5058116;28;45504;-77
2022/01/04 06:54:10;;;;;;;;;0.00;0.00;;;;;10.09;77.93;99232.41;5076930;28;45995;-77
2022/01/04 06:56:36;;;;;;;;;0.00;0.00;;;;;10.03;77.90;99235.59;5076629;28;45744;-78
2022/01/04 06:59:01;;;;;;;;;0.00;0.00;;;;;10.08;78.01;99246.47;5076458;28;45691;-78
2022/01/04 07:04:48;;;;;;;;;0.00;0.00;;;;;10.07;77.98;99268.38;5076186;28;46062;-77
2022/01/04 07:07:14;;;;;;;;;0.75;0.75;;;;;10.10;77.86;99262.00;5076702;28;45790;-80
2022/01/04 07:09:39;;;;;;;;;3.00;2.00;;;;;10.09;77.77;99258.56;5076078;28;45725;-80
2022/01/04 07:12:05;;;;;;;;;1.00;1.00;;;;;10.08;77.86;99254.31;5076213;28;46860;-77
2022/01/04 07:14:30;;;;;;;;;1.00;1.00;;;;;10.03;77.90;99253.09;5076166;28;45994;-80
2022/01/04 07:20:17;;;;;;;;;3.00;2.00;;;;;9.76;78.00;99217.16;5076141;28;45548;-78
2022/01/04 07:22:43;;;;;;;;;3.00;3.00;;;;;10.01;77.98;99258.44;5076224;28;46447;-79
2022/01/04 07:25:09;;;;;;;;;5.50;3.00;;;;;10.01;78.13;99258.44;5075960;28;45609;-78
2022/01/04 07:27:34;;;;;;;;;3.00;3.00;;;;;10.01;78.07;99262.84;5075676;28;45748;-77
2022/01/04 07:30:01;;;;;;;;;4.25;2.75;;;;;9.98;78.04;99258.75;5075775;28;45688;-79
2022/01/04 07:35:49;;;;;;;;;3.25;2.50;;;;;9.94;78.05;99275.66;5075680;27;45792;-78
2022/01/04 07:38:16;;;;;;;;;4.25;2.00;;;;;9.91;78.00;99283.78;5075871;28;45854;-80
2022/01/04 07:40:41;;;;;;;;;4.00;3.25;;;;;9.91;78.20;99282.97;5076016;28;45668;-79
2022/01/04 07:43:07;;;;;;;;;2.25;2.25;;;;;9.91;78.34;99286.41;5074569;28;46262;-79
2022/01/04 07:45:34;;;;;;;;;2.00;2.00;;;;;9.91;78.28;99286.41;5074786;28;47214;-79
2022/01/04 07:48:01;;;;;;;;;3.00;3.00;;;;;9.91;78.24;99291.63;5074792;28;45894;-78
2022/01/04 07:50:27;;;;;;;;;3.00;1.00;;;;;9.84;78.13;99284.47;5075293;28;45874;-78
2022/01/04 07:52:54;;;;;;;;;2.00;2.00;;;;;9.82;77.98;99295.09;5075424;28;45475;-77
2022/01/04 07:55:20;;;;;;;;;1.75;1.75;;;;;9.93;77.97;99300.16;5075754;28;46163;-79
2022/01/04 07:57:46;;;;;;;;;2.75;2.00;;;;;9.94;78.11;99306.22;5057481;28;45517;-79
2022/01/04 08:00:13;;;;;;;;;2.00;2.00;;;;;9.94;77.88;99314.91;5057082;28;45638;-76
2022/01/04 08:06:03;;;;;;;;;1.75;1.75;;;;;9.92;77.90;99334.31;5075279;28;45768;-79
2022/01/04 08:08:28;;;;;;;;;0.00;0.00;;;;;9.95;78.03;99339.28;5075634;28;45625;-80
2022/01/04 08:10:54;;;;;;;;;1.00;1.00;;;;;9.84;77.76;99316.69;5074037;28;45553;-81
2022/01/04 08:13:19;;;;;;;;;0.00;0.00;;;;;9.99;77.83;99351.94;5057959;28;46358;-78
2022/01/04 08:15:44;;;;;;;;;1.00;1.00;;;;;10.00;77.70;99360.63;5075802;28;45685;-79
2022/01/04 08:18:10;;;;;;;;;0.00;0.00;;;;;9.97;77.90;99371.38;5075464;28;45562;-79
2022/01/04 08:20:36;;;;;;;;;1.00;1.00;;;;;10.00;77.59;99386.78;5075666;28;45546;-79
2022/01/04 08:23:02;;;;;;;;;0.00;0.00;;;;;9.88;77.64;99361.72;5075409;28;45507;-78
2022/01/04 08:25:27;;;;;;;;;0.00;0.00;;;;;9.96;77.57;99373.16;5075424;28;45927;-78
2022/01/04 08:27:53;;;;;;;;;0.00;0.00;;;;;9.99;77.55;99364.19;5075322;28;45440;-78
2022/01/04 08:30:19;;;;;;;;;1.00;0.25;;;;;9.95;77.56;99353.19;5075294;28;45649;-77
2022/01/04 08:36:08;;;;;;;;;0.00;0.00;;;;;9.99;77.63;99361.56;5075141;27;45743;-80
2022/01/04 08:38:34;;;;;;;;;0.00;0.00;;;;;9.99;77.46;99388.56;5075243;28;45597;-81
2022/01/04 08:40:59;;;;;;;;;0.00;0.00;;;;;9.99;77.41;99388.56;5073727;28;45546;-80
2022/01/04 08:43:26;;;;;;;;;0.00;0.00;;;;;9.96;77.36;99380.19;5075250;28;46859;-80
2022/01/04 08:45:52;;;;;;;;;0.00;0.00;;;;;10.00;77.48;99392.84;5074872;28;46177;-79
2022/01/04 08:48:17;;;;;;;;;0.00;0.00;;;;;10.00;77.34;99392.84;5075558;28;45751;-79
2022/01/04 08:50:46;;;;;;;;;0.00;0.00;;;;;10.00;77.33;99398.06;5074881;28;45640;-80
2022/01/04 08:53:13;;;;;;;;;0.00;0.00;;;;;9.91;77.17;99388.44;5074773;28;46427;-78
2022/01/04 08:55:39;;;;;;;;;0.00;0.00;;;;;9.96;77.49;99404.56;5075063;28;46166;-79
2022/01/04 08:58:06;;;;;;;;;0.00;0.00;;;;;9.91;77.38;99393.66;5075414;28;45824;-79
2022/01/04 09:00:55;;;;;;;;;0.75;0.00;;;;;9.95;77.16;99399.44;5057263;28;45574;-80
2022/01/04 09:06:46;;;;;;;;;0.00;0.00;;;;;9.98;77.32;99401.81;5012345;28;46135;-79
2022/01/04 09:09:12;;;;;;;;;0.00;0.00;;;;;9.95;77.33;99396.81;5012077;28;45579;-78
2022/01/04 09:11:37;;;;;;;;;0.00;0.00;;;;;9.98;77.05;99405.25;5012075;28;45887;-79
2022/01/04 09:19:19;;;;;;;;;0.00;0.00;;;;;10.05;77.32;99422.03;5012598;28;45544;-80
2022/01/04 09:21:45;;;;;;;;;0.00;0.00;;;;;10.06;77.13;99412.41;4995463;28;45798;-77
2022/01/04 09:24:11;;;;;;;;;0.00;0.00;;;;;10.03;77.01;99408.28;4995842;28;46350;-80
2022/01/04 09:26:36;;;;;;;;;1.50;0.00;;;;;10.05;77.17;99411.59;5011717;28;46397;-77
2022/01/04 09:29:03;;;;;;;;;2.00;2.00;;;;;10.02;76.94;99409.25;5011293;28;45563;-76
2022/01/04 09:31:29;;;;;;;;;1.00;1.00;;;;;10.03;76.79;99403.06;5011770;28;45560;-77
2022/01/04 09:33:57;;;;;;;;;2.00;1.75;;;;;10.12;77.22;99401.41;5033751;28;47243;-76
2022/01/04 09:36:22;;;;;;;;;2.50;2.00;;;;;10.16;77.08;99409.81;5073696;27;47357;-76
2022/01/04 09:38:48;;;;;;;;;2.75;2.00;;;;;10.15;77.24;99408.19;5055808;28;45654;-74
2022/01/04 09:41:14;;;;;;;;;2.00;2.00;;;;;10.18;77.18;99389.59;5073725;28;45855;-77
2022/01/04 09:43:39;;;;;;;;;2.50;1.50;;;;;10.22;77.19;99386.56;5055313;28;47308;-76
2022/01/04 09:46:04;;;;;;;;;1.00;1.00;;;;;10.26;77.03;99395.78;5073701;28;45669;-77
2022/01/04 09:51:52;;;;;;;;;1.00;1.00;;;;;10.33;76.88;99422.25;5074054;28;45593;-80
2022/01/04 09:54:22;;;;;;;;;2.75;2.75;;;;;10.33;77.08;99430.94;5074160;28;46358;-80
2022/01/04 09:56:48;;;;;;;;;3.00;2.00;;;;;10.37;77.04;99434.09;5074116;28;45983;-82
2022/01/04 09:59:14;;;;;;;;;3.00;2.00;;;;;10.38;77.30;99433.97;5073679;28;45777;-80
2022/01/04 10:01:40;;;;;;;;;2.00;1.00;;;;;10.42;77.23;99437.97;5074809;28;45593;-81
2022/01/04 10:04:06;;;;;;;;;0.75;0.75;;;;;10.43;76.90;99438.78;5074186;28;47133;-83
2022/01/04 10:06:33;;;;;;;;;1.75;1.75;;;;;10.38;76.88;99426.13;5074825;28;46520;-80
2022/01/04 10:09:10;;;;;;;;;1.00;1.00;;;;;10.36;76.76;99422.00;5080473;28;45649;-75
2022/01/04 10:11:42;;;;;;;;;1.00;1.00;;;;;10.48;76.85;99447.91;5079857;28;45363;-78
2022/01/04 10:14:28;;;;;;;;;2.75;2.00;;;;;10.51;76.83;99460.72;5077844;28;46605;-78
2022/01/04 10:16:58;;;;;;;;;1.00;1.00;;;;;10.49;76.89;99453.97;5059133;28;47612;-77
2022/01/04 10:19:51;;;;;;;;;3.25;1.00;;;;;10.58;76.78;99470.66;5076929;28;45671;-79
2022/01/04 10:22:27;;;;;;;;;1.00;0.00;;;;;10.61;76.76;99468.59;4995038;28;45651;-80
2022/01/04 10:25:04;;;;;;;;;1.00;1.00;;;;;10.66;76.73;99465.56;4995113;28;47482;-80
2022/01/04 10:27:31;;;;;;;;;1.00;0.00;;;;;10.69;76.76;99460.06;4994927;28;47477;-81
2022/01/04 10:30:35;;;;;;;;;1.00;1.00;;;;;10.71;76.64;99443.22;4994807;28;45783;-81
2022/01/04 10:33:02;;;;;;;;;1.00;0.75;;;;;10.74;76.76;99456.03;4994785;28;45961;-80
2022/01/04 10:35:40;;;;;;;;;1.00;1.00;;;;;10.76;76.73;99448.03;4982182;28;46684;-80
2022/01/04 10:38:21;;;;;;;;;0.00;0.00;;;;;10.79;76.72;99434.69;5014352;28;46523;-77
2022/01/04 10:41:11;;;;;;;;;1.75;1.75;;;;;10.81;76.72;99437.97;5014434;28;45732;-77
2022/01/04 10:43:39;;;;;;;;;0.00;0.00;;;;;10.79;76.77;99422.41;5011463;28;45949;-79
2022/01/04 10:46:05;;;;;;;;;0.00;0.00;;;;;10.86;76.61;99426.09;5014287;28;46715;-78
2022/01/04 10:48:39;;;;;;;;;0.25;0.25;;;;;10.88;76.49;99420.72;5013513;28;45844;-77
2022/01/04 10:51:07;;;;;;;;;0.00;0.00;;;;;10.88;76.56;99434.66;5013341;28;45832;-76
2022/01/04 10:53:37;;;;;;;;;1.00;0.00;;;;;10.90;76.52;99439.78;5013733;28;45567;-78
2022/01/04 10:56:09;;;;;;;;;0.00;0.00;;;;;10.90;76.45;99439.78;5014220;28;47507;-79
2022/01/04 10:58:36;;;;;;;;;0.00;0.00;;;;;10.93;76.47;99434.25;5028105;28;46078;-80
2022/01/04 11:01:05;;;;;;;;;0.75;0.50;;;;;10.96;76.31;99435.75;5076169;28;45855;-85
2022/01/04 11:03:33;;;;;;;;;2.00;1.00;;;;;10.97;76.43;99440.84;5076673;28;45914;-82
2022/01/04 11:06:02;;;;;;;;;0.50;0.50;;;;;10.99;76.31;99435.47;5076205;28;47276;-80
2022/01/04 11:08:28;;;;;;;;;2.00;0.50;;;;;10.97;76.27;99432.97;5076585;28;46000;-82
2022/01/04 11:10:59;;;;;;;;;2.25;2.00;;;;;11.00;76.24;99442.38;5076699;28;45663;-85
2022/01/04 11:13:25;;;;;;;;;1.25;1.25;;;;;10.95;76.33;99413.97;5058969;28;45623;-83
2022/01/04 11:15:51;;;;;;;;;2.00;1.00;;;;;11.03;76.23;99428.97;5076986;28;47272;-84
2022/01/04 11:18:17;;;;;;;;;0.75;0.75;;;;;11.04;76.10;99430.63;5082194;28;47081;-83
2022/01/04 11:20:45;;;;;;;;;2.00;1.00;;;;;11.01;76.17;99421.28;5076214;28;45549;-83
2022/01/04 11:23:12;;;;;;;;;1.00;1.00;;;;;11.01;76.12;99425.69;5077507;28;45755;-85
2022/01/04 11:25:40;;;;;;;;;1.75;1.00;;;;;11.02;75.98;99429.94;5076662;28;47675;-80
2022/01/04 11:28:08;;;;;;;;;0.00;0.00;;;;;11.12;76.00;99430.78;5076450;28;45825;-78
2022/01/04 11:30:45;;;;;;;;;2.00;1.00;;;;;11.14;76.11;99439.31;5076523;28;45473;-79
2022/01/04 11:33:43;;;;;;;;;1.00;1.00;;;;;11.15;76.00;99441.78;5076732;28;45629;-79
2022/01/04 11:36:29;;;;;;;;;0.00;0.00;;;;;11.18;75.94;99438.03;5076193;27;45624;-81
2022/01/04 11:38:55;;;;;;;;;0.00;0.00;;;;;11.20;75.95;99436.13;4992618;28;46391;-76
2022/01/04 11:41:43;;;;;;;;;1.00;0.75;;;;;11.08;75.92;99411.84;4993998;28;45852;-80
2022/01/04 11:44:19;;;;;;;;;1.00;1.00;;;;;11.20;75.87;99438.75;4998556;28;45556;-85
2022/01/04 11:47:06;;;;;;;;;0.75;0.75;;;;;11.19;75.84;99426.59;4998523;28;46444;-80
2022/01/04 11:52:59;;;;;;;;;0.25;0.25;;;;;11.27;75.93;99424.09;4989961;28;45710;-76
2022/01/04 11:55:25;;;;;;;;;0.75;0.75;;;;;11.29;75.62;99425.59;4990539;28;45961;-82
2022/01/04 11:57:54;;;;;;;;;0.00;0.00;;;;;11.30;75.75;99424.63;4990966;28;47522;-75
2022/01/04 12:00:27;;;;;;;;;0.00;0.00;;;;;11.31;75.79;99415.81;4989784;28;47335;-79
2022/01/04 12:03:20;;;;;;;;;0.75;0.00;;;;;11.32;75.73;99414.84;4990462;28;45656;-79
2022/01/04 12:05:54;;;;;;;;;1.50;1.00;;;;;11.32;75.63;99419.25;4994167;28;45978;-75
2022/01/04 12:08:21;;;;;;;;;0.25;0.00;;;;;11.28;75.58;99425.75;4990487;28;45568;-75
2022/01/04 12:10:50;;;;;;;;;0.00;0.00;;;;;11.25;75.53;99420.78;4990551;28;45636;-78
2022/01/04 12:13:18;;;;;;;;;1.25;1.00;;;;;11.28;75.54;99437.03;4991367;28;45715;-78
2022/01/04 12:15:49;;;;;;;;;0.00;0.00;;;;;11.26;75.63;99436.38;5022410;28;45725;-79
2022/01/04 12:18:23;;;;;;;;;0.00;0.00;;;;;11.27;75.48;99445.06;5072230;28;46362;-77
2022/01/04 12:20:50;;;;;;;;;1.00;0.75;;;;;11.27;75.32;99437.22;5072389;28;46742;-76
2022/01/04 12:23:31;;;;;;;;;1.00;0.00;;;;;11.27;75.47;99440.66;5073237;28;45752;-79
2022/01/04 12:26:06;;;;;;;;;0.75;0.00;;;;;11.28;75.46;99425.75;5073699;28;45659;-78
2022/01/04 12:28:37;;;;;;;;;1.00;1.00;;;;;11.27;75.33;99422.31;5073898;28;45836;-79
2022/01/04 12:31:17;;;;;;;;;0.00;0.00;;;;;11.30;75.58;99411.53;5072663;28;47356;-77
2022/01/04 12:33:57;;;;;;;;;1.00;1.00;;;;;11.28;75.09;99396.91;5071866;28;45661;-77
2022/01/04 12:36:30;;;;;;;;;0.00;0.00;;;;;11.34;75.34;99404.19;5073738;27;45783;-80
2022/01/04 12:38:58;;;;;;;;;0.00;0.00;;;;;11.32;75.36;99391.25;5072565;28;45607;-78
2022/01/04 12:41:25;;;;;;;;;0.00;0.00;;;;;11.35;75.40;99396.19;5075476;28;45713;-76
2022/01/04 12:43:51;;;;;;;;;0.00;0.00;;;;;11.31;75.20;99378.28;5075896;28;45499;-79
2022/01/04 12:46:38;;;;;;;;;0.00;0.00;;;;;11.29;74.99;99381.03;5076117;28;45584;-79
2022/01/04 12:49:09;;;;;;;;;1.00;0.00;;;;;11.27;75.10;99384.78;5075303;28;46567;-81
2022/01/04 12:51:36;;;;;;;;;1.00;0.50;;;;;11.30;75.05;99385.31;5075438;28;45610;-79
2022/01/04 12:54:09;;;;;;;;;0.50;0.00;;;;;11.31;75.14;99373.84;5075018;28;45708;-75
2022/01/04 12:56:41;;;;;;;;;0.00;0.00;;;;;11.33;75.09;99376.34;5074631;28;45624;-77
2022/01/04 12:59:06;;;;;;;;;1.00;1.00;;;;;11.30;75.00;99353.84;5074574;28;46735;-82
2022/01/04 13:01:33;;;;;;;;;1.00;0.75;;;;;11.32;74.94;99356.31;5075066;28;45645;-80
2022/01/04 13:04:00;;;;;;;;;0.75;0.75;;;;;11.39;75.03;99367.06;5074799;28;45542;-85
2022/01/04 13:06:27;;;;;;;;;1.25;1.00;;;;;11.36;74.81;99347.19;5075031;28;45735;-80